createdAt,value
2023-02-16T00:00:34.557Z,29.93
2023-02-16T00:03:02.156Z,33.20
2023-02-16T00:05:30.920Z,28.77
2023-02-16T00:07:58.842Z,31.17
2023-02-16T00:10:27.150Z,29.67
2023-02-16T00:13:13.149Z,30.10
2023-02-16T00:15:41.155Z,33.90
2023-02-16T00:18:26.493Z,31.57
2023-02-16T00:20:54.006Z,34.67
2023-02-16T00:23:21.421Z,31.47
2023-02-16T00:25:48.938Z,34.67
2023-02-16T00:28:18.742Z,31.27
2023-02-16T00:30:46.542Z,28.70
2023-02-16T00:33:18.450Z,28.50
2023-02-16T00:35:46.008Z,29.03
2023-02-16T00:38:14.010Z,37.47
2023-02-16T00:40:41.965Z,32.03
2023-02-16T00:43:20.382Z,32.23
2023-02-16T00:45:47.844Z,30.40
2023-02-16T00:48:15.664Z,32.63
2023-02-16T00:50:43.199Z,30.77
2023-02-16T00:53:11.739Z,28.30
2023-02-16T00:55:40.274Z,32.20
2023-02-16T00:58:25.663Z,30.73
2023-02-16T01:00:54.407Z,34.03
2023-02-16T01:03:24.179Z,32.50
2023-02-16T01:06:11.758Z,32.20
2023-02-16T01:08:57.829Z,32.20
2023-02-16T01:11:26.750Z,33.03
2023-02-16T01:13:54.670Z,34.17
2023-02-16T01:16:23.471Z,33.57
2023-02-16T01:18:51.377Z,45.13
2023-02-16T01:21:21.895Z,40.63
2023-02-16T01:23:49.428Z,41.60
2023-02-16T01:26:18.187Z,51.70
2023-02-16T01:28:47.501Z,64.37
2023-02-16T01:31:17.197Z,52.83
2023-02-16T01:33:45.108Z,79.50
2023-02-16T01:36:35.143Z,71.47
2023-02-16T01:39:03.389Z,128.97
2023-02-16T01:41:53.775Z,87.97
2023-02-16T01:44:39.694Z,90.63
2023-02-16T01:47:25.716Z,66.47
2023-02-16T01:49:53.198Z,54.53
2023-02-16T01:52:27.479Z,41.33
2023-02-16T01:54:58.977Z,43.50
2023-02-16T01:57:50.495Z,36.93
2023-02-16T02:00:22.987Z,38.80
2023-02-16T02:02:53.467Z,36.30
2023-02-16T02:05:35.171Z,33.40
2023-02-16T02:08:25.871Z,42.37
2023-02-16T02:11:28.741Z,54.43
2023-02-16T02:14:01.520Z,58.63
2023-02-16T02:16:29.614Z,50.20
2023-02-16T02:18:57.232Z,45.80
2023-02-16T02:21:50.083Z,82.07
2023-02-16T02:24:41.237Z,55.70
2023-02-16T02:27:28.916Z,90.37
2023-02-16T02:30:19.243Z,91.10
2023-02-16T02:33:07.399Z,159.83
2023-02-16T02:35:52.652Z,86.73
2023-02-16T02:38:34.287Z,82.77
2023-02-16T02:41:13.225Z,66.10
2023-02-16T02:43:45.711Z,55.47
2023-02-16T02:46:24.844Z,56.57
2023-02-16T02:48:52.523Z,43.43
2023-02-16T02:51:30.694Z,64.30
2023-02-16T02:54:40.886Z,54.87
2023-02-16T02:57:53.741Z,82.87
2023-02-16T03:00:43.282Z,62.67
2023-02-16T03:03:27.843Z,58.80
2023-02-16T03:05:58.064Z,50.00
2023-02-16T03:08:28.475Z,72.73
2023-02-16T03:11:17.358Z,62.57
2023-02-16T03:13:47.620Z,93.27
2023-02-16T03:16:21.041Z,109.60
2023-02-16T03:19:07.288Z,110.60
2023-02-16T03:21:55.111Z,79.77
2023-02-16T03:24:46.960Z,78.13
2023-02-16T03:27:36.168Z,106.13
2023-02-16T03:30:05.659Z,110.37
2023-02-16T03:32:33.299Z,67.60
2023-02-16T03:35:00.789Z,59.83
2023-02-16T03:37:28.359Z,63.83
2023-02-16T03:40:14.643Z,73.43
2023-02-16T03:42:49.014Z,122.40
2023-02-16T03:45:16.556Z,83.20
2023-02-16T03:47:43.982Z,142.37
2023-02-16T03:50:11.522Z,100.53
2023-02-16T03:52:38.949Z,75.13
2023-02-16T03:55:06.634Z,106.63
2023-02-16T03:57:34.032Z,80.93
2023-02-16T04:00:01.516Z,90.40
2023-02-16T04:02:29.684Z,77.80
2023-02-16T04:04:58.313Z,92.10
2023-02-16T04:07:25.814Z,79.77
2023-02-16T04:09:53.290Z,79.23
2023-02-16T04:12:39.338Z,98.53
2023-02-16T04:15:11.556Z,88.80
2023-02-16T04:17:39.052Z,112.50
2023-02-16T04:20:09.878Z,82.47
2023-02-16T04:22:37.375Z,77.13
2023-02-16T04:25:04.932Z,102.37
2023-02-16T04:27:32.428Z,112.57
2023-02-16T04:29:59.846Z,122.47
2023-02-16T04:32:27.379Z,145.83
2023-02-16T04:34:54.926Z,68.17
2023-02-16T04:37:22.443Z,125.20
2023-02-16T04:39:49.938Z,75.23
2023-02-16T04:42:17.453Z,75.53
2023-02-16T04:44:44.859Z,94.97
2023-02-16T04:47:12.488Z,65.93
2023-02-16T04:49:39.972Z,87.27
2023-02-16T04:52:07.482Z,73.60
2023-02-16T04:54:34.929Z,89.40
2023-02-16T04:57:02.394Z,62.83
2023-02-16T04:59:29.802Z,62.97
2023-02-16T05:01:57.786Z,109.13
2023-02-16T05:04:25.510Z,94.50
2023-02-16T05:06:53.004Z,66.93
2023-02-16T05:09:20.403Z,70.67
2023-02-16T05:12:06.751Z,54.43
2023-02-16T05:14:41.856Z,93.70
2023-02-16T05:17:27.533Z,67.90
2023-02-16T05:19:56.491Z,133.03
2023-02-16T05:22:24.293Z,61.20
2023-02-16T05:24:51.812Z,79.03
2023-02-16T05:27:23.934Z,71.93
2023-02-16T05:29:51.795Z,75.70
2023-02-16T05:32:19.606Z,75.93
2023-02-16T05:34:47.172Z,74.97
2023-02-16T05:37:15.459Z,67.00
2023-02-16T05:39:42.993Z,80.33
2023-02-16T05:42:10.514Z,78.20
2023-02-16T05:44:38.583Z,80.37
2023-02-16T05:47:06.111Z,91.20
2023-02-16T05:49:33.607Z,75.90
2023-02-16T05:52:01.032Z,89.47
2023-02-16T05:54:28.614Z,85.23
2023-02-16T05:56:56.116Z,104.57
2023-02-16T05:59:23.649Z,96.73
2023-02-16T06:01:52.423Z,67.03
2023-02-16T06:04:20.726Z,63.83
2023-02-16T06:06:48.529Z,67.77
2023-02-16T06:09:16.066Z,67.50
2023-02-16T06:11:43.718Z,72.70
2023-02-16T06:14:13.846Z,160.17
2023-02-16T06:16:42.111Z,94.37
2023-02-16T06:19:10.361Z,105.23
2023-02-16T06:21:38.327Z,74.17
2023-02-16T06:24:06.039Z,51.03
2023-02-16T06:26:33.503Z,63.83
2023-02-16T06:29:00.996Z,58.53
2023-02-16T06:31:28.834Z,105.93
2023-02-16T06:33:57.151Z,55.27
2023-02-16T06:36:25.403Z,55.97
2023-02-16T06:38:52.854Z,129.20
2023-02-16T06:41:35.792Z,87.23
2023-02-16T06:44:04.384Z,57.93
2023-02-16T06:46:32.112Z,54.33
2023-02-16T06:48:59.953Z,47.77
2023-02-16T06:51:27.693Z,69.33
2023-02-16T06:53:55.225Z,81.30
2023-02-16T06:56:22.723Z,47.13
2023-02-16T06:58:50.588Z,48.17
2023-02-16T07:01:25.894Z,60.23
2023-02-16T07:03:54.134Z,46.97
2023-02-16T07:06:22.330Z,66.23
2023-02-16T07:08:49.861Z,51.30
2023-02-16T07:11:17.561Z,62.53
2023-02-16T07:13:45.020Z,55.47
2023-02-16T07:16:12.882Z,59.77
2023-02-16T07:18:40.491Z,70.13
2023-02-16T07:21:08.150Z,74.03
2023-02-16T07:23:35.593Z,58.77
2023-02-16T07:26:03.039Z,63.20
2023-02-16T07:28:30.521Z,73.57
2023-02-16T07:30:58.062Z,64.90
2023-02-16T07:33:25.557Z,48.10
2023-02-16T07:35:53.259Z,51.00
2023-02-16T07:38:20.706Z,43.77
2023-02-16T07:40:48.179Z,74.40
2023-02-16T07:43:15.627Z,40.17
2023-02-16T07:45:50.327Z,43.60
2023-02-16T07:48:17.862Z,51.77
2023-02-16T07:50:45.312Z,50.40
2023-02-16T07:53:13.087Z,35.70
2023-02-16T07:55:41.494Z,41.03
2023-02-16T07:58:09.089Z,35.33
2023-02-16T08:00:36.750Z,43.23
2023-02-16T08:03:04.900Z,36.90
2023-02-16T08:05:32.413Z,45.53
2023-02-16T08:08:00.044Z,59.70
2023-02-16T08:10:27.564Z,38.10
2023-02-16T08:12:54.972Z,54.30
2023-02-16T08:15:23.979Z,36.60
2023-02-16T08:17:51.421Z,54.73
2023-02-16T08:20:18.930Z,57.00
2023-02-16T08:22:47.218Z,41.97
2023-02-16T08:25:16.063Z,35.37
2023-02-16T08:27:43.511Z,31.00
2023-02-16T08:30:13.013Z,48.33
2023-02-16T08:32:41.406Z,35.47
2023-02-16T08:35:09.145Z,35.23
2023-02-16T08:37:39.079Z,30.13
2023-02-16T08:40:09.042Z,34.33
2023-02-16T08:42:37.496Z,36.20
2023-02-16T08:45:06.820Z,55.10
2023-02-16T08:47:36.538Z,38.30
2023-02-16T08:50:03.985Z,30.53
2023-02-16T08:52:31.453Z,41.50
2023-02-16T08:54:58.914Z,37.47
2023-02-16T08:57:26.333Z,36.17
2023-02-16T09:00:13.792Z,33.70
2023-02-16T09:02:42.044Z,31.43
2023-02-16T09:05:10.167Z,31.83
2023-02-16T09:07:37.619Z,30.90
2023-02-16T09:10:06.132Z,42.47
2023-02-16T09:12:35.385Z,41.13
2023-02-16T09:15:03.258Z,45.77
2023-02-16T09:17:31.173Z,42.07
2023-02-16T09:19:58.575Z,58.17
2023-02-16T09:22:27.498Z,34.77
2023-02-16T09:24:54.912Z,39.83
2023-02-16T09:27:22.405Z,32.13
2023-02-16T09:29:50.436Z,39.80
2023-02-16T09:32:20.743Z,36.97
2023-02-16T09:34:50.263Z,36.57
2023-02-16T09:37:17.883Z,28.10
2023-02-16T09:39:45.303Z,34.73
2023-02-16T09:42:21.810Z,33.00
2023-02-16T09:44:54.726Z,27.60
2023-02-16T09:47:33.324Z,28.57
2023-02-16T09:50:38.204Z,27.47
2023-02-16T09:53:34.882Z,27.00
2023-02-16T09:56:08.269Z,26.57
2023-02-16T09:58:43.213Z,23.50
2023-02-16T10:01:35.012Z,25.87
2023-02-16T10:04:24.822Z,26.17
2023-02-16T10:06:58.525Z,26.60
2023-02-16T10:09:28.004Z,24.13
2023-02-16T10:12:04.892Z,26.00
2023-02-16T10:14:58.363Z,23.67
2023-02-16T10:17:46.161Z,23.47
2023-02-16T10:20:22.480Z,23.40
2023-02-16T10:23:10.308Z,23.20
2023-02-16T10:25:42.993Z,24.07
2023-02-16T10:28:22.844Z,25.83
2023-02-16T10:30:52.640Z,24.93
2023-02-16T10:33:33.916Z,23.90
2023-02-16T10:36:02.355Z,21.63
2023-02-16T10:38:51.547Z,22.60
2023-02-16T10:41:28.137Z,24.30
2023-02-16T10:44:02.090Z,24.03
2023-02-16T10:46:33.209Z,22.83
2023-02-16T10:49:02.232Z,22.50
2023-02-16T10:51:33.758Z,23.60
2023-02-16T10:54:17.306Z,23.67
2023-02-16T10:56:49.698Z,22.13
2023-02-16T10:59:24.497Z,22.73
2023-02-16T11:02:15.233Z,20.47
2023-02-16T11:04:43.821Z,20.80
2023-02-16T11:07:13.120Z,21.43
2023-02-16T11:09:41.661Z,20.63
2023-02-16T11:12:39.479Z,20.13
2023-02-16T11:15:36.020Z,20.80
2023-02-16T11:18:08.702Z,22.50
2023-02-16T11:20:51.533Z,21.47
2023-02-16T11:23:51.646Z,22.33
2023-02-16T11:26:26.543Z,22.73
2023-02-16T11:28:54.230Z,20.17
2023-02-16T11:31:40.862Z,21.57
2023-02-16T11:34:13.462Z,18.90
2023-02-16T11:36:42.914Z,20.20
2023-02-16T11:39:28.173Z,20.60
2023-02-16T11:41:57.346Z,19.00
2023-02-16T11:44:32.399Z,19.60
2023-02-16T11:47:03.874Z,19.70
2023-02-16T11:49:33.726Z,19.70
2023-02-16T11:52:01.818Z,19.27
2023-02-16T11:54:29.416Z,18.63
2023-02-16T11:57:04.644Z,19.33
2023-02-16T11:59:36.062Z,17.57
2023-02-16T12:02:18.885Z,16.30
2023-02-16T12:05:01.418Z,18.17
2023-02-16T12:07:51.599Z,15.33
2023-02-16T12:10:26.518Z,16.63
2023-02-16T12:13:00.822Z,16.23
2023-02-16T12:15:45.439Z,14.80
2023-02-16T12:18:28.254Z,14.83
2023-02-16T12:21:17.315Z,15.30
2023-02-16T12:23:55.915Z,15.67
2023-02-16T12:26:49.664Z,14.37
2023-02-16T12:29:49.580Z,14.97
2023-02-16T12:32:47.062Z,14.90
2023-02-16T12:35:27.011Z,15.40
2023-02-16T12:38:04.677Z,14.37
2023-02-16T12:40:47.352Z,13.90
2023-02-16T12:43:33.816Z,13.80
2023-02-16T12:46:04.341Z,14.00
2023-02-16T12:48:57.269Z,13.90
2023-02-16T12:51:51.619Z,13.53
2023-02-16T12:54:31.502Z,15.20
2023-02-16T12:57:02.271Z,14.83
2023-02-16T12:59:50.105Z,14.23
2023-02-16T13:02:23.331Z,14.60
2023-02-16T13:04:55.747Z,12.90
2023-02-16T13:07:33.491Z,13.97
2023-02-16T13:10:05.505Z,13.80
2023-02-16T13:12:50.765Z,12.63
2023-02-16T13:15:23.711Z,13.27
2023-02-16T13:17:56.872Z,13.20
2023-02-16T13:20:25.027Z,12.10
2023-02-16T13:23:15.693Z,11.80
2023-02-16T13:26:03.817Z,12.90
2023-02-16T13:28:52.685Z,11.90
2023-02-16T13:31:54.119Z,11.30
2023-02-16T13:34:41.362Z,11.57
2023-02-16T13:37:28.211Z,11.20
2023-02-16T13:40:14.040Z,11.77
2023-02-16T13:43:17.007Z,11.20
2023-02-16T13:45:54.624Z,11.30
2023-02-16T13:48:26.824Z,11.77
2023-02-16T13:51:05.466Z,11.07
2023-02-16T13:53:37.848Z,12.77
2023-02-16T13:56:37.733Z,10.80
2023-02-16T13:59:42.003Z,11.40
2023-02-16T14:02:13.094Z,11.23
2023-02-16T14:05:01.724Z,12.10
2023-02-16T14:07:35.956Z,11.40
2023-02-16T14:10:03.725Z,10.40
2023-02-16T14:12:34.372Z,10.60
2023-02-16T14:15:03.400Z,11.03
2023-02-16T14:17:33.003Z,11.83
2023-02-16T14:20:30.180Z,10.37
2023-02-16T14:23:00.316Z,11.20
2023-02-16T14:25:32.738Z,10.67
2023-02-16T14:28:05.921Z,10.63
2023-02-16T14:30:52.063Z,10.90
2023-02-16T14:33:22.540Z,10.97
2023-02-16T14:36:19.122Z,11.03
2023-02-16T14:38:47.669Z,11.20
2023-02-16T14:41:44.410Z,10.90
2023-02-16T14:44:22.870Z,11.37
2023-02-16T14:47:04.270Z,10.43
2023-02-16T14:49:52.094Z,11.47
2023-02-16T14:52:38.780Z,10.87
2023-02-16T14:55:35.813Z,11.47
2023-02-16T14:58:06.796Z,12.20
2023-02-16T15:00:39.774Z,12.33
2023-02-16T15:03:18.018Z,11.80
2023-02-16T15:05:51.366Z,13.40
2023-02-16T15:08:22.581Z,11.70
2023-02-16T15:10:54.296Z,12.27
2023-02-16T15:13:27.354Z,12.13
2023-02-16T15:15:57.053Z,12.77
2023-02-16T15:18:26.203Z,12.43
2023-02-16T15:20:54.804Z,13.10
2023-02-16T15:23:24.137Z,13.17
2023-02-16T15:26:15.022Z,13.63
2023-02-16T15:28:42.911Z,12.77
2023-02-16T15:31:18.285Z,13.50
2023-02-16T15:34:07.557Z,11.90
2023-02-16T15:36:36.712Z,13.33
2023-02-16T15:39:05.878Z,13.67
2023-02-16T15:41:35.271Z,13.40
2023-02-16T15:44:03.939Z,12.83
2023-02-16T15:46:42.186Z,13.00
2023-02-16T15:49:42.532Z,12.57
2023-02-16T15:52:14.352Z,13.20
2023-02-16T15:54:42.432Z,13.13
2023-02-16T15:57:39.073Z,13.90
2023-02-16T16:00:09.386Z,12.93
2023-02-16T16:02:47.647Z,13.17
2023-02-16T16:05:29.269Z,12.17
2023-02-16T16:07:57.750Z,12.50
2023-02-16T16:10:27.197Z,13.33
2023-02-16T16:12:57.302Z,12.60
2023-02-16T16:15:25.943Z,15.13
2023-02-16T16:17:54.077Z,35.73
2023-02-16T16:20:36.621Z,50.07
2023-02-16T16:23:08.334Z,22.57
2023-02-16T16:25:40.420Z,19.77
2023-02-16T16:28:09.567Z,19.67
2023-02-16T16:30:43.909Z,15.73
2023-02-16T16:33:15.753Z,14.53
2023-02-16T16:35:48.120Z,17.30
2023-02-16T16:38:23.776Z,14.13
2023-02-16T16:40:53.294Z,17.60
2023-02-16T16:43:21.260Z,12.67
2023-02-16T16:45:50.043Z,13.33
2023-02-16T16:48:23.104Z,13.53
2023-02-16T16:50:50.583Z,13.23
2023-02-16T16:53:39.757Z,12.03
2023-02-16T16:56:11.270Z,12.60
2023-02-16T16:58:38.931Z,13.60
2023-02-16T17:01:06.564Z,12.83
2023-02-16T17:03:34.087Z,13.30
2023-02-16T17:06:01.519Z,13.90
2023-02-16T17:08:29.051Z,12.33
2023-02-16T17:10:56.666Z,12.50
2023-02-16T17:13:24.163Z,12.83
2023-02-16T17:15:59.680Z,14.00
2023-02-16T17:18:27.282Z,13.50
2023-02-16T17:20:54.735Z,12.30
2023-02-16T17:23:23.029Z,11.97
2023-02-16T17:25:50.981Z,12.30
2023-02-16T17:28:19.713Z,12.33
2023-02-16T17:30:47.366Z,12.37
2023-02-16T17:33:15.182Z,11.60
2023-02-16T17:35:43.441Z,12.90
2023-02-16T17:38:12.905Z,12.30
2023-02-16T17:40:41.420Z,12.03
2023-02-16T17:43:12.757Z,12.23
2023-02-16T17:45:40.689Z,12.83
2023-02-16T17:48:08.137Z,11.60
2023-02-16T17:50:36.060Z,11.83
2023-02-16T17:53:03.519Z,12.63
2023-02-16T17:55:31.485Z,12.43
2023-02-16T17:57:58.917Z,13.63
2023-02-16T18:00:29.153Z,13.50
2023-02-16T18:02:56.544Z,13.00
2023-02-16T18:05:24.191Z,12.70
2023-02-16T18:07:52.446Z,14.10
2023-02-16T18:10:31.301Z,13.40
2023-02-16T18:12:59.187Z,12.87
2023-02-16T18:15:26.622Z,13.17
2023-02-16T18:17:55.459Z,14.00
2023-02-16T18:20:23.000Z,13.00
2023-02-16T18:22:50.820Z,13.93
2023-02-16T18:25:18.337Z,14.17
2023-02-16T18:27:45.941Z,13.90
2023-02-16T18:30:14.216Z,13.33
2023-02-16T18:32:45.670Z,12.73
2023-02-16T18:35:14.146Z,14.67
2023-02-16T18:37:42.013Z,12.60
2023-02-16T18:40:10.770Z,13.53
2023-02-16T18:42:38.444Z,13.67
2023-02-16T18:45:06.661Z,12.83
2023-02-16T18:47:34.143Z,13.37
2023-02-16T18:50:01.668Z,13.23
2023-02-16T18:52:29.081Z,12.93
2023-02-16T18:54:56.602Z,12.93
2023-02-16T18:57:25.013Z,12.50
2023-02-16T18:59:52.465Z,13.00
2023-02-16T19:02:19.962Z,12.43
2023-02-16T19:04:48.082Z,13.13
2023-02-16T19:07:15.554Z,12.47
2023-02-16T19:09:43.042Z,12.43
2023-02-16T19:12:10.534Z,12.17
2023-02-16T19:14:38.241Z,13.67
2023-02-16T19:17:05.660Z,13.87
2023-02-16T19:19:33.309Z,13.13
2023-02-16T19:22:00.796Z,13.90
2023-02-16T19:24:28.393Z,14.03
2023-02-16T19:26:55.877Z,13.50
2023-02-16T19:29:23.592Z,13.93
2023-02-16T19:31:51.164Z,13.40
2023-02-16T19:34:18.873Z,13.93
2023-02-16T19:36:46.408Z,12.27
2023-02-16T19:39:13.966Z,11.43
2023-02-16T19:41:46.427Z,12.00
2023-02-16T19:44:14.482Z,11.97
2023-02-16T19:46:42.463Z,10.83
2023-02-16T19:49:12.560Z,11.30
2023-02-16T19:51:40.008Z,11.43
2023-02-16T19:54:07.591Z,10.57
2023-02-16T19:56:36.463Z,10.83
2023-02-16T19:59:04.013Z,11.80
2023-02-16T20:01:31.516Z,11.50
2023-02-16T20:04:00.462Z,10.80
2023-02-16T20:06:29.864Z,9.97
2023-02-16T20:08:57.613Z,10.97
2023-02-16T20:11:26.149Z,10.83
2023-02-16T20:13:54.117Z,10.07
2023-02-16T20:16:21.831Z,9.60
2023-02-16T20:18:49.973Z,9.90
2023-02-16T20:21:18.892Z,9.90
2023-02-16T20:23:46.813Z,9.90
2023-02-16T20:26:16.239Z,9.80
2023-02-16T20:28:43.789Z,9.97
2023-02-16T20:31:15.826Z,11.13
2023-02-16T20:33:43.660Z,10.50
2023-02-16T20:36:11.372Z,10.50
2023-02-16T20:38:39.077Z,10.57
2023-02-16T20:41:06.541Z,11.77
2023-02-16T20:43:34.632Z,11.63
2023-02-16T20:46:02.873Z,11.10
2023-02-16T20:48:30.500Z,11.17
2023-02-16T20:50:58.846Z,11.73
2023-02-16T20:53:26.777Z,11.47
2023-02-16T20:56:01.747Z,11.07
2023-02-16T20:58:29.281Z,11.03
2023-02-16T21:00:57.104Z,11.57
2023-02-16T21:03:25.227Z,11.23
2023-02-16T21:05:52.666Z,11.37
2023-02-16T21:08:20.371Z,11.93
2023-02-16T21:10:47.909Z,12.37
2023-02-16T21:13:15.549Z,12.23
2023-02-16T21:15:43.027Z,11.93
2023-02-16T21:18:10.813Z,12.07
2023-02-16T21:20:38.243Z,12.60
2023-02-16T21:23:07.147Z,12.57
2023-02-16T21:25:34.765Z,12.70
2023-02-16T21:28:02.266Z,12.57
2023-02-16T21:30:29.846Z,12.13
2023-02-16T21:32:57.410Z,12.23
2023-02-16T21:35:24.859Z,12.27
2023-02-16T21:37:52.395Z,12.50
2023-02-16T21:40:38.731Z,12.37
2023-02-16T21:43:06.237Z,12.83
2023-02-16T21:45:33.706Z,12.20
2023-02-16T21:48:19.786Z,12.77
2023-02-16T21:50:47.313Z,12.13
2023-02-16T21:53:14.774Z,12.57
2023-02-16T21:56:01.159Z,12.27
2023-02-16T21:58:30.300Z,12.07
2023-02-16T22:00:57.755Z,11.73
2023-02-16T22:03:26.000Z,12.43
2023-02-16T22:05:53.395Z,12.03
2023-02-16T22:08:20.856Z,12.03
2023-02-16T22:10:48.342Z,11.90
2023-02-16T22:13:16.303Z,13.20
2023-02-16T22:15:43.722Z,13.30
2023-02-16T22:18:11.227Z,12.53
2023-02-16T22:20:38.638Z,12.93
2023-02-16T22:23:06.117Z,12.47
2023-02-16T22:25:33.637Z,12.30
2023-02-16T22:28:01.172Z,13.20
2023-02-16T22:30:28.699Z,11.87
2023-02-16T22:32:56.226Z,12.70
2023-02-16T22:35:24.000Z,12.33
2023-02-16T22:37:51.481Z,11.97
2023-02-16T22:40:19.069Z,11.90
2023-02-16T22:42:46.580Z,13.10
2023-02-16T22:45:14.028Z,12.07
2023-02-16T22:47:41.527Z,12.53
2023-02-16T22:50:09.156Z,13.87
2023-02-16T22:52:38.211Z,13.20
2023-02-16T22:55:06.378Z,13.80
2023-02-16T22:57:39.974Z,13.87
2023-02-16T23:00:09.781Z,14.77
2023-02-16T23:02:37.853Z,13.10
2023-02-16T23:05:05.656Z,12.97
2023-02-16T23:07:33.981Z,13.33
2023-02-16T23:10:01.931Z,14.67
2023-02-16T23:12:29.369Z,13.63
2023-02-16T23:14:56.813Z,12.93
2023-02-16T23:17:24.254Z,13.30
2023-02-16T23:19:51.750Z,13.00
2023-02-16T23:22:19.181Z,14.03
2023-02-16T23:25:06.586Z,14.07
2023-02-16T23:27:34.761Z,13.53
2023-02-16T23:30:02.269Z,14.13
2023-02-16T23:32:29.781Z,13.50
2023-02-16T23:34:59.785Z,13.60
2023-02-16T23:37:31.518Z,12.93
2023-02-16T23:39:59.424Z,12.73
2023-02-16T23:42:26.866Z,13.13
2023-02-16T23:44:55.511Z,14.03
2023-02-16T23:47:23.025Z,13.17
2023-02-16T23:49:50.567Z,13.10
2023-02-16T23:52:18.377Z,13.30
2023-02-16T23:54:45.998Z,13.77
2023-02-16T23:57:13.417Z,13.27
2023-02-16T23:59:41.167Z,12.63
